sensor_id;sensor_type;location;lat;lon;timestamp;temperature;humidity
66035;HTU21D;52805;51.074;5.842;2023-04-01T00:00:20;11.18;87.80
66035;HTU21D;52805;51.074;5.842;2023-04-01T00:02:47;11.19;87.87
66035;HTU21D;52805;51.074;5.842;2023-04-01T00:05:12;11.20;87.83
66035;HTU21D;52805;51.074;5.842;2023-04-01T00:07:39;11.19;87.85
66035;HTU21D;52805;51.074;5.842;2023-04-01T00:10:11;11.24;87.67
66035;HTU21D;52805;51.074;5.842;2023-04-01T00:12:38;11.23;87.49
66035;HTU21D;52805;51.074;5.842;2023-04-01T00:15:06;11.23;87.58
66035;HTU21D;52805;51.074;5.842;2023-04-01T00:17:33;11.17;87.61
66035;HTU21D;52805;51.074;5.842;2023-04-01T00:19:58;11.16;87.77
66035;HTU21D;52805;51.074;5.842;2023-04-01T00:22:25;11.14;87.93
66035;HTU21D;52805;51.074;5.842;2023-04-01T00:24:54;11.17;87.71
66035;HTU21D;52805;51.074;5.842;2023-04-01T00:27:20;11.14;87.96
66035;HTU21D;52805;51.074;5.842;2023-04-01T00:29:46;11.15;87.67
66035;HTU21D;52805;51.074;5.842;2023-04-01T00:32:14;11.17;87.54
66035;HTU21D;52805;51.074;5.842;2023-04-01T00:34:40;11.14;87.81
66035;HTU21D;52805;51.074;5.842;2023-04-01T00:37:07;11.17;87.69
66035;HTU21D;52805;51.074;5.842;2023-04-01T00:39:34;11.17;87.51
66035;HTU21D;52805;51.074;5.842;2023-04-01T00:42:00;11.16;87.35
66035;HTU21D;52805;51.074;5.842;2023-04-01T00:44:32;11.17;87.38
66035;HTU21D;52805;51.074;5.842;2023-04-01T00:46:59;11.15;87.57
66035;HTU21D;52805;51.074;5.842;2023-04-01T00:49:30;11.13;87.55
66035;HTU21D;52805;51.074;5.842;2023-04-01T00:51:59;11.08;87.90
66035;HTU21D;52805;51.074;5.842;2023-04-01T00:54:28;11.13;87.60
66035;HTU21D;52805;51.074;5.842;2023-04-01T00:57:36;11.17;87.32
66035;HTU21D;52805;51.074;5.842;2023-04-01T01:00:06;11.14;87.51
66035;HTU21D;52805;51.074;5.842;2023-04-01T01:02:35;11.14;87.52
66035;HTU21D;52805;51.074;5.842;2023-04-01T01:05:01;11.02;88.05
66035;HTU21D;52805;51.074;5.842;2023-04-01T01:10:38;11.02;88.33
66035;HTU21D;52805;51.074;5.842;2023-04-01T01:13:11;11.10;88.07
66035;HTU21D;52805;51.074;5.842;2023-04-01T01:15:59;11.04;88.30
66035;HTU21D;52805;51.074;5.842;2023-04-01T01:18:49;11.03;88.44
66035;HTU21D;52805;51.074;5.842;2023-04-01T01:24:10;11.10;88.36
66035;HTU21D;52805;51.074;5.842;2023-04-01T01:32:24;11.00;88.48
66035;HTU21D;52805;51.074;5.842;2023-04-01T01:37:46;11.05;88.42
66035;HTU21D;52805;51.074;5.842;2023-04-01T01:40:15;11.05;88.51
66035;HTU21D;52805;51.074;5.842;2023-04-01T01:42:48;11.05;88.61
66035;HTU21D;52805;51.074;5.842;2023-04-01T01:45:18;11.10;88.47
66035;HTU21D;52805;51.074;5.842;2023-04-01T01:47:46;11.05;88.77
66035;HTU21D;52805;51.074;5.842;2023-04-01T01:50:13;11.00;88.99
66035;HTU21D;52805;51.074;5.842;2023-04-01T01:52:40;11.01;89.08
66035;HTU21D;52805;51.074;5.842;2023-04-01T01:55:31;11.10;88.73
66035;HTU21D;52805;51.074;5.842;2023-04-01T01:58:13;11.07;88.80
66035;HTU21D;52805;51.074;5.842;2023-04-01T02:00:46;11.08;88.82
66035;HTU21D;52805;51.074;5.842;2023-04-01T02:03:15;11.00;89.15
66035;HTU21D;52805;51.074;5.842;2023-04-01T02:05:42;10.98;89.17
66035;HTU21D;52805;51.074;5.842;2023-04-01T02:08:16;10.98;89.17
66035;HTU21D;52805;51.074;5.842;2023-04-01T02:10:53;10.95;89.34
66035;HTU21D;52805;51.074;5.842;2023-04-01T02:13:29;10.95;89.52
66035;HTU21D;52805;51.074;5.842;2023-04-01T02:16:00;10.93;89.53
66035;HTU21D;52805;51.074;5.842;2023-04-01T02:18:28;10.93;89.75
66035;HTU21D;52805;51.074;5.842;2023-04-01T02:20:58;10.93;89.69
66035;HTU21D;52805;51.074;5.842;2023-04-01T02:23:25;10.90;89.76
66035;HTU21D;52805;51.074;5.842;2023-04-01T02:25:53;10.95;89.73
66035;HTU21D;52805;51.074;5.842;2023-04-01T02:28:20;10.96;89.62
66035;HTU21D;52805;51.074;5.842;2023-04-01T02:30:49;10.99;89.50
66035;HTU21D;52805;51.074;5.842;2023-04-01T02:33:17;10.95;89.53
66035;HTU21D;52805;51.074;5.842;2023-04-01T02:35:44;11.00;89.35
66035;HTU21D;52805;51.074;5.842;2023-04-01T02:38:10;10.95;89.65
66035;HTU21D;52805;51.074;5.842;2023-04-01T02:40:48;10.99;89.55
66035;HTU21D;52805;51.074;5.842;2023-04-01T02:43:14;10.98;89.40
66035;HTU21D;52805;51.074;5.842;2023-04-01T02:45:40;11.00;89.51
66035;HTU21D;52805;51.074;5.842;2023-04-01T02:48:05;11.02;89.38
66035;HTU21D;52805;51.074;5.842;2023-04-01T02:50:31;10.98;89.68
66035;HTU21D;52805;51.074;5.842;2023-04-01T02:52:57;10.97;89.77
66035;HTU21D;52805;51.074;5.842;2023-04-01T02:55:23;10.98;89.81
66035;HTU21D;52805;51.074;5.842;2023-04-01T02:57:49;11.01;89.70
66035;HTU21D;52805;51.074;5.842;2023-04-01T03:00:15;11.01;89.52
66035;HTU21D;52805;51.074;5.842;2023-04-01T03:02:41;11.01;89.50
66035;HTU21D;52805;51.074;5.842;2023-04-01T03:05:07;11.07;89.15
66035;HTU21D;52805;51.074;5.842;2023-04-01T03:07:33;11.05;89.15
66035;HTU21D;52805;51.074;5.842;2023-04-01T03:09:58;11.04;89.17
66035;HTU21D;52805;51.074;5.842;2023-04-01T03:12:24;11.07;89.22
66035;HTU21D;52805;51.074;5.842;2023-04-01T03:14:51;11.09;89.08
66035;HTU21D;52805;51.074;5.842;2023-04-01T03:17:17;11.07;89.22
66035;HTU21D;52805;51.074;5.842;2023-04-01T03:19:42;11.04;89.39
66035;HTU21D;52805;51.074;5.842;2023-04-01T03:22:11;11.05;89.44
66035;HTU21D;52805;51.074;5.842;2023-04-01T03:24:36;11.02;89.54
66035;HTU21D;52805;51.074;5.842;2023-04-01T03:27:02;11.08;89.21
66035;HTU21D;52805;51.074;5.842;2023-04-01T03:29:28;11.05;89.12
66035;HTU21D;52805;51.074;5.842;2023-04-01T03:31:54;11.03;89.30
66035;HTU21D;52805;51.074;5.842;2023-04-01T03:34:24;11.09;89.07
66035;HTU21D;52805;51.074;5.842;2023-04-01T03:36:51;11.03;89.34
66035;HTU21D;52805;51.074;5.842;2023-04-01T03:39:17;11.09;89.18
66035;HTU21D;52805;51.074;5.842;2023-04-01T03:41:46;11.05;89.20
66035;HTU21D;52805;51.074;5.842;2023-04-01T03:44:12;11.13;88.96
66035;HTU21D;52805;51.074;5.842;2023-04-01T03:46:39;11.09;89.06
66035;HTU21D;52805;51.074;5.842;2023-04-01T03:49:11;11.16;88.78
66035;HTU21D;52805;51.074;5.842;2023-04-01T03:51:40;11.09;88.96
66035;HTU21D;52805;51.074;5.842;2023-04-01T03:54:08;11.08;88.96
66035;HTU21D;52805;51.074;5.842;2023-04-01T03:56:34;11.05;88.96
66035;HTU21D;52805;51.074;5.842;2023-04-01T03:59:05;11.10;88.66
66035;HTU21D;52805;51.074;5.842;2023-04-01T04:01:31;11.08;88.80
66035;HTU21D;52805;51.074;5.842;2023-04-01T04:03:57;11.05;88.76
66035;HTU21D;52805;51.074;5.842;2023-04-01T04:06:24;11.03;88.96
66035;HTU21D;52805;51.074;5.842;2023-04-01T04:08:50;11.02;88.99
66035;HTU21D;52805;51.074;5.842;2023-04-01T04:11:17;11.00;89.07
66035;HTU21D;52805;51.074;5.842;2023-04-01T04:13:43;11.03;89.07
66035;HTU21D;52805;51.074;5.842;2023-04-01T04:16:09;11.02;88.87
66035;HTU21D;52805;51.074;5.842;2023-04-01T04:18:39;10.99;89.09
66035;HTU21D;52805;51.074;5.842;2023-04-01T04:21:05;11.00;89.12
66035;HTU21D;52805;51.074;5.842;2023-04-01T04:23:31;11.02;89.00
66035;HTU21D;52805;51.074;5.842;2023-04-01T04:26:08;11.01;89.04
66035;HTU21D;52805;51.074;5.842;2023-04-01T04:28:35;10.93;89.47
66035;HTU21D;52805;51.074;5.842;2023-04-01T04:31:02;10.92;89.50
66035;HTU21D;52805;51.074;5.842;2023-04-01T04:33:30;10.94;89.47
66035;HTU21D;52805;51.074;5.842;2023-04-01T04:35:57;10.92;89.57
66035;HTU21D;52805;51.074;5.842;2023-04-01T04:38:23;10.94;89.57
66035;HTU21D;52805;51.074;5.842;2023-04-01T04:40:49;10.93;89.38
66035;HTU21D;52805;51.074;5.842;2023-04-01T04:43:17;10.93;89.47
66035;HTU21D;52805;51.074;5.842;2023-04-01T04:45:43;10.98;89.14
66035;HTU21D;52805;51.074;5.842;2023-04-01T04:48:12;10.94;89.12
66035;HTU21D;52805;51.074;5.842;2023-04-01T04:50:48;10.88;89.21
66035;HTU21D;52805;51.074;5.842;2023-04-01T04:53:17;10.89;89.25
66035;HTU21D;52805;51.074;5.842;2023-04-01T04:55:48;10.92;89.05
66035;HTU21D;52805;51.074;5.842;2023-04-01T04:58:34;10.90;89.32
66035;HTU21D;52805;51.074;5.842;2023-04-01T05:01:12;10.98;88.94
66035;HTU21D;52805;51.074;5.842;2023-04-01T05:03:39;10.93;88.93
66035;HTU21D;52805;51.074;5.842;2023-04-01T05:06:07;10.89;89.28
66035;HTU21D;52805;51.074;5.842;2023-04-01T05:08:34;10.89;89.23
66035;HTU21D;52805;51.074;5.842;2023-04-01T05:11:01;10.90;89.19
66035;HTU21D;52805;51.074;5.842;2023-04-01T05:13:29;10.92;89.29
66035;HTU21D;52805;51.074;5.842;2023-04-01T05:15:54;10.94;89.22
66035;HTU21D;52805;51.074;5.842;2023-04-01T05:18:21;10.93;89.14
66035;HTU21D;52805;51.074;5.842;2023-04-01T05:20:49;10.95;89.26
66035;HTU21D;52805;51.074;5.842;2023-04-01T05:23:16;10.95;89.12
66035;HTU21D;52805;51.074;5.842;2023-04-01T05:25:43;10.97;88.99
66035;HTU21D;52805;51.074;5.842;2023-04-01T05:28:11;10.93;89.17
66035;HTU21D;52805;51.074;5.842;2023-04-01T05:30:40;10.97;88.84
66035;HTU21D;52805;51.074;5.842;2023-04-01T05:33:20;10.97;88.80
66035;HTU21D;52805;51.074;5.842;2023-04-01T05:35:46;11.00;88.66
66035;HTU21D;52805;51.074;5.842;2023-04-01T05:38:12;10.96;88.84
66035;HTU21D;52805;51.074;5.842;2023-04-01T05:40:38;10.99;88.78
66035;HTU21D;52805;51.074;5.842;2023-04-01T05:43:04;10.97;88.84
66035;HTU21D;52805;51.074;5.842;2023-04-01T05:45:29;10.99;88.67
66035;HTU21D;52805;51.074;5.842;2023-04-01T05:48:15;10.98;88.64
66035;HTU21D;52805;51.074;5.842;2023-04-01T05:50:41;10.95;88.81
66035;HTU21D;52805;51.074;5.842;2023-04-01T05:53:08;10.93;88.93
66035;HTU21D;52805;51.074;5.842;2023-04-01T05:55:36;10.90;88.94
66035;HTU21D;52805;51.074;5.842;2023-04-01T05:58:03;10.92;89.18
66035;HTU21D;52805;51.074;5.842;2023-04-01T06:00:29;10.94;88.99
66035;HTU21D;52805;51.074;5.842;2023-04-01T06:02:59;10.95;89.19
66035;HTU21D;52805;51.074;5.842;2023-04-01T06:05:29;10.96;88.89
66035;HTU21D;52805;51.074;5.842;2023-04-01T06:08:01;10.99;88.87
66035;HTU21D;52805;51.074;5.842;2023-04-01T06:11:12;10.98;89.00
66035;HTU21D;52805;51.074;5.842;2023-04-01T06:22:27;11.00;89.11
66035;HTU21D;52805;51.074;5.842;2023-04-01T06:51:27;11.03;89.16
66035;HTU21D;52805;51.074;5.842;2023-04-01T06:54:42;11.05;89.26
66035;HTU21D;52805;51.074;5.842;2023-04-01T06:57:39;11.09;89.33
66035;HTU21D;52805;51.074;5.842;2023-04-01T07:05:47;11.08;89.23
66035;HTU21D;52805;51.074;5.842;2023-04-01T07:08:23;11.07;89.32
66035;HTU21D;52805;51.074;5.842;2023-04-01T07:11:05;11.05;89.49
66035;HTU21D;52805;51.074;5.842;2023-04-01T07:14:01;11.01;89.69
66035;HTU21D;52805;51.074;5.842;2023-04-01T07:19:08;11.02;89.60
66035;HTU21D;52805;51.074;5.842;2023-04-01T07:25:17;11.01;89.53
66035;HTU21D;52805;51.074;5.842;2023-04-01T07:27:53;11.05;89.48
66035;HTU21D;52805;51.074;5.842;2023-04-01T07:30:24;11.01;89.82
66035;HTU21D;52805;51.074;5.842;2023-04-01T07:35:37;11.10;89.76
66035;HTU21D;52805;51.074;5.842;2023-04-01T07:43:58;11.16;89.51
66035;HTU21D;52805;51.074;5.842;2023-04-01T07:51:47;11.31;89.13
66035;HTU21D;52805;51.074;5.842;2023-04-01T07:54:53;11.33;89.15
66035;HTU21D;52805;51.074;5.842;2023-04-01T07:57:34;11.37;89.14
66035;HTU21D;52805;51.074;5.842;2023-04-01T08:00:22;11.34;89.23
66035;HTU21D;52805;51.074;5.842;2023-04-01T08:06:20;11.42;88.88
66035;HTU21D;52805;51.074;5.842;2023-04-01T08:09:27;11.47;88.56
66035;HTU21D;52805;51.074;5.842;2023-04-01T08:12:36;11.41;88.76
66035;HTU21D;52805;51.074;5.842;2023-04-01T08:15:57;11.40;88.94
66035;HTU21D;52805;51.074;5.842;2023-04-01T08:21:23;11.40;88.80
66035;HTU21D;52805;51.074;5.842;2023-04-01T08:23:54;11.38;88.86
66035;HTU21D;52805;51.074;5.842;2023-04-01T08:26:44;11.42;88.67
66035;HTU21D;52805;51.074;5.842;2023-04-01T08:29:21;11.43;88.86
66035;HTU21D;52805;51.074;5.842;2023-04-01T08:32:03;11.51;88.89
66035;HTU21D;52805;51.074;5.842;2023-04-01T08:34:40;11.57;88.59
66035;HTU21D;52805;51.074;5.842;2023-04-01T08:37:21;11.62;88.51
66035;HTU21D;52805;51.074;5.842;2023-04-01T08:46:03;11.79;88.18
66035;HTU21D;52805;51.074;5.842;2023-04-01T08:48:48;11.83;88.11
66035;HTU21D;52805;51.074;5.842;2023-04-01T08:57:04;11.81;88.25
66035;HTU21D;52805;51.074;5.842;2023-04-01T09:00:02;11.87;87.98
66035;HTU21D;52805;51.074;5.842;2023-04-01T09:06:29;11.83;88.09
66035;HTU21D;52805;51.074;5.842;2023-04-01T09:20:46;11.96;87.87
66035;HTU21D;52805;51.074;5.842;2023-04-01T09:28:57;11.97;87.65
66035;HTU21D;52805;51.074;5.842;2023-04-01T09:37:34;11.96;87.23
66035;HTU21D;52805;51.074;5.842;2023-04-01T09:45:48;11.79;87.32
66035;HTU21D;52805;51.074;5.842;2023-04-01T10:34:07;12.22;86.04
66035;HTU21D;52805;51.074;5.842;2023-04-01T10:36:56;12.25;85.86
66035;HTU21D;52805;51.074;5.842;2023-04-01T10:42:48;12.25;85.87
66035;HTU21D;52805;51.074;5.842;2023-04-01T10:45:56;12.31;85.82
66035;HTU21D;52805;51.074;5.842;2023-04-01T10:54:58;12.40;86.10
66035;HTU21D;52805;51.074;5.842;2023-04-01T11:00:55;12.55;85.49
66035;HTU21D;52805;51.074;5.842;2023-04-01T11:19:07;12.64;85.03
66035;HTU21D;52805;51.074;5.842;2023-04-01T11:31:04;12.70;84.77
66035;HTU21D;52805;51.074;5.842;2023-04-01T11:33:52;12.79;84.64
66035;HTU21D;52805;51.074;5.842;2023-04-01T11:42:58;12.77;84.48
66035;HTU21D;52805;51.074;5.842;2023-04-01T11:46:15;12.78;84.52
66035;HTU21D;52805;51.074;5.842;2023-04-01T11:51:59;13.00;84.15
66035;HTU21D;52805;51.074;5.842;2023-04-01T12:06:57;13.34;82.68
66035;HTU21D;52805;51.074;5.842;2023-04-01T12:29:37;13.74;82.20
66035;HTU21D;52805;51.074;5.842;2023-04-01T12:35:21;13.63;81.53
66035;HTU21D;52805;51.074;5.842;2023-04-01T12:38:14;13.61;81.87
66035;HTU21D;52805;51.074;5.842;2023-04-01T12:41:05;13.70;81.93
66035;HTU21D;52805;51.074;5.842;2023-04-01T12:44:04;13.80;81.93
66035;HTU21D;52805;51.074;5.842;2023-04-01T12:46:51;13.93;81.75
66035;HTU21D;52805;51.074;5.842;2023-04-01T12:52:11;14.04;81.38
66035;HTU21D;52805;51.074;5.842;2023-04-01T12:54:58;14.00;81.21
66035;HTU21D;52805;51.074;5.842;2023-04-01T12:57:57;13.95;81.50
66035;HTU21D;52805;51.074;5.842;2023-04-01T13:03:17;13.81;81.67
66035;HTU21D;52805;51.074;5.842;2023-04-01T13:14:25;13.97;81.41
66035;HTU21D;52805;51.074;5.842;2023-04-01T13:17:13;13.88;81.34
66035;HTU21D;52805;51.074;5.842;2023-04-01T13:25:01;13.63;80.97
66035;HTU21D;52805;51.074;5.842;2023-04-01T13:36:03;13.15;82.07
66035;HTU21D;52805;51.074;5.842;2023-04-01T13:41:55;13.12;82.04
66035;HTU21D;52805;51.074;5.842;2023-04-01T13:44:49;13.08;81.94
66035;HTU21D;52805;51.074;5.842;2023-04-01T13:50:42;13.07;82.43
66035;HTU21D;52805;51.074;5.842;2023-04-01T14:04:09;13.02;82.84
66035;HTU21D;52805;51.074;5.842;2023-04-01T14:06:55;13.00;82.84
66035;HTU21D;52805;51.074;5.842;2023-04-01T14:23:18;12.95;83.55
66035;HTU21D;52805;51.074;5.842;2023-04-01T14:28:31;13.09;83.13
66035;HTU21D;52805;51.074;5.842;2023-04-01T14:48:31;13.02;83.13
66035;HTU21D;52805;51.074;5.842;2023-04-01T14:54:04;12.92;83.14
66035;HTU21D;52805;51.074;5.842;2023-04-01T14:59:01;12.92;83.48
66035;HTU21D;52805;51.074;5.842;2023-04-01T15:45:49;12.48;84.13
66035;HTU21D;52805;51.074;5.842;2023-04-01T15:51:40;12.50;84.01
66035;HTU21D;52805;51.074;5.842;2023-04-01T16:16:12;12.32;84.19
66035;HTU21D;52805;51.074;5.842;2023-04-01T16:27:40;12.31;84.26
66035;HTU21D;52805;51.074;5.842;2023-04-01T16:30:37;12.28;84.47
66035;HTU21D;52805;51.074;5.842;2023-04-01T16:42:31;12.13;84.68
66035;HTU21D;52805;51.074;5.842;2023-04-01T16:45:30;12.03;85.24
66035;HTU21D;52805;51.074;5.842;2023-04-01T16:48:17;12.03;85.47
66035;HTU21D;52805;51.074;5.842;2023-04-01T16:50:58;12.03;85.45
66035;HTU21D;52805;51.074;5.842;2023-04-01T16:53:30;12.00;85.74
66035;HTU21D;52805;51.074;5.842;2023-04-01T16:56:04;12.01;85.76
66035;HTU21D;52805;51.074;5.842;2023-04-01T17:01:31;11.99;85.90
66035;HTU21D;52805;51.074;5.842;2023-04-01T17:07:32;11.90;86.37
66035;HTU21D;52805;51.074;5.842;2023-04-01T17:10:28;11.96;86.25
66035;HTU21D;52805;51.074;5.842;2023-04-01T17:21:13;11.89;86.16
66035;HTU21D;52805;51.074;5.842;2023-04-01T17:27:06;11.82;85.77
66035;HTU21D;52805;51.074;5.842;2023-04-01T17:45:54;11.70;86.08
66035;HTU21D;52805;51.074;5.842;2023-04-01T17:48:52;11.68;86.06
66035;HTU21D;52805;51.074;5.842;2023-04-01T17:51:54;11.66;86.15
66035;HTU21D;52805;51.074;5.842;2023-04-01T18:13:59;11.55;86.68
66035;HTU21D;52805;51.074;5.842;2023-04-01T18:19:20;11.56;86.77
66035;HTU21D;52805;51.074;5.842;2023-04-01T18:24:41;11.52;86.79
66035;HTU21D;52805;51.074;5.842;2023-04-01T18:29:54;11.46;86.75
66035;HTU21D;52805;51.074;5.842;2023-04-01T18:40:30;11.51;86.91
66035;HTU21D;52805;51.074;5.842;2023-04-01T18:45:43;11.48;86.92
66035;HTU21D;52805;51.074;5.842;2023-04-01T18:48:33;11.48;86.90
66035;HTU21D;52805;51.074;5.842;2023-04-01T18:51:20;11.49;86.91
66035;HTU21D;52805;51.074;5.842;2023-04-01T18:54:04;11.51;86.84
66035;HTU21D;52805;51.074;5.842;2023-04-01T18:56:38;11.47;86.91
66035;HTU21D;52805;51.074;5.842;2023-04-01T18:59:30;11.47;87.07
66035;HTU21D;52805;51.074;5.842;2023-04-01T19:02:01;11.45;86.80
66035;HTU21D;52805;51.074;5.842;2023-04-01T19:04:39;11.45;86.86
66035;HTU21D;52805;51.074;5.842;2023-04-01T19:10:26;11.43;87.09
66035;HTU21D;52805;51.074;5.842;2023-04-01T19:15:55;11.46;87.19
66035;HTU21D;52805;51.074;5.842;2023-04-01T19:21:40;11.51;87.25
66035;HTU21D;52805;51.074;5.842;2023-04-01T19:24:56;11.55;86.95
66035;HTU21D;52805;51.074;5.842;2023-04-01T19:27:48;11.48;87.05
66035;HTU21D;52805;51.074;5.842;2023-04-01T19:30:18;11.45;87.15
66035;HTU21D;52805;51.074;5.842;2023-04-01T19:33:12;11.45;87.25
66035;HTU21D;52805;51.074;5.842;2023-04-01T19:35:59;11.46;87.22
66035;HTU21D;52805;51.074;5.842;2023-04-01T19:38:38;11.43;87.48
66035;HTU21D;52805;51.074;5.842;2023-04-01T19:41:30;11.45;87.46
66035;HTU21D;52805;51.074;5.842;2023-04-01T19:44:14;11.44;87.70
66035;HTU21D;52805;51.074;5.842;2023-04-01T19:47:11;11.43;87.73
66035;HTU21D;52805;51.074;5.842;2023-04-01T19:52:37;11.42;88.12
66035;HTU21D;52805;51.074;5.842;2023-04-01T19:55:35;11.41;88.40
66035;HTU21D;52805;51.074;5.842;2023-04-01T20:00:46;11.38;88.73
66035;HTU21D;52805;51.074;5.842;2023-04-01T20:03:29;11.38;88.86
66035;HTU21D;52805;51.074;5.842;2023-04-01T20:09:10;11.38;88.95
66035;HTU21D;52805;51.074;5.842;2023-04-01T20:14:49;11.37;89.33
66035;HTU21D;52805;51.074;5.842;2023-04-01T20:28:05;11.47;89.72
66035;HTU21D;52805;51.074;5.842;2023-04-01T20:36:34;11.38;89.38
66035;HTU21D;52805;51.074;5.842;2023-04-01T20:52:48;11.16;89.75
66035;HTU21D;52805;51.074;5.842;2023-04-01T20:55:47;11.17;89.83
66035;HTU21D;52805;51.074;5.842;2023-04-01T21:22:41;11.02;89.20
66035;HTU21D;52805;51.074;5.842;2023-04-01T21:25:36;10.92;89.75
66035;HTU21D;52805;51.074;5.842;2023-04-01T21:28:29;10.88;89.65
66035;HTU21D;52805;51.074;5.842;2023-04-01T21:45:57;10.78;89.38
66035;HTU21D;52805;51.074;5.842;2023-04-01T22:08:41;10.68;88.70
66035;HTU21D;52805;51.074;5.842;2023-04-01T22:11:30;10.68;88.96
66035;HTU21D;52805;51.074;5.842;2023-04-01T22:14:18;10.65;88.15
66035;HTU21D;52805;51.074;5.842;2023-04-01T22:19:36;10.55;88.50
66035;HTU21D;52805;51.074;5.842;2023-04-01T22:32:52;10.37;88.45
66035;HTU21D;52805;51.074;5.842;2023-04-01T22:35:35;10.37;88.67
66035;HTU21D;52805;51.074;5.842;2023-04-01T22:38:18;10.36;88.73
66035;HTU21D;52805;51.074;5.842;2023-04-01T22:41:40;10.31;88.80
66035;HTU21D;52805;51.074;5.842;2023-04-01T22:43:44;10.27;88.70
66035;HTU21D;52805;51.074;5.842;2023-04-01T22:46:30;10.29;88.47
66035;HTU21D;52805;51.074;5.842;2023-04-01T22:52:10;10.09;88.86
66035;HTU21D;52805;51.074;5.842;2023-04-01T22:54:44;10.06;88.95
66035;HTU21D;52805;51.074;5.842;2023-04-01T22:57:30;10.06;88.95
66035;HTU21D;52805;51.074;5.842;2023-04-01T23:03:33;10.06;88.51
66035;HTU21D;52805;51.074;5.842;2023-04-01T23:05:44;10.05;88.45
66035;HTU21D;52805;51.074;5.842;2023-04-01T23:11:23;10.09;88.28
66035;HTU21D;52805;51.074;5.842;2023-04-01T23:16:36;10.03;87.65
66035;HTU21D;52805;51.074;5.842;2023-04-01T23:19:26;10.03;87.89
66035;HTU21D;52805;51.074;5.842;2023-04-01T23:22:19;10.00;87.90
66035;HTU21D;52805;51.074;5.842;2023-04-01T23:24:55;9.90;87.80
66035;HTU21D;52805;51.074;5.842;2023-04-01T23:27:46;9.84;87.78
66035;HTU21D;52805;51.074;5.842;2023-04-01T23:35:59;9.69;87.96
66035;HTU21D;52805;51.074;5.842;2023-04-01T23:38:37;9.67;87.86
66035;HTU21D;52805;51.074;5.842;2023-04-01T23:41:06;9.67;87.92
66035;HTU21D;52805;51.074;5.842;2023-04-01T23:43:37;9.51;88.74
66035;HTU21D;52805;51.074;5.842;2023-04-01T23:46:06;9.47;88.42
66035;HTU21D;52805;51.074;5.842;2023-04-01T23:48:37;9.41;88.84
66035;HTU21D;52805;51.074;5.842;2023-04-01T23:51:25;9.40;89.01
66035;HTU21D;52805;51.074;5.842;2023-04-01T23:54:18;9.41;89.53
66035;HTU21D;52805;51.074;5.842;2023-04-01T23:56:51;9.42;89.29
66035;HTU21D;52805;51.074;5.842;2023-04-01T23:59:24;9.48;88.92
